CheckWX is a tool to help pilots better visualize weather data.  It is not intended as a substitute for an official pre-flight weather briefing.

01:05:09 UTC

KFLO METAR
Florence Regional Airport
Florence, South Carolina, USA
Current

31 mins ago

KFLO 200034Z 16004KT 8SM -RA FEW055 SCT075 BKN095 26/23 A3006 RMK AO2 LTG DSNT N AND NE TSE13 P0007 T02610228
Observed
Aug-20 @ 00:34 UTC
Wind
  • 160° at 4 KTS
Visibility
8 SM
Flight Rules
VFR
Conditions
Light Rain
Cloud Levels
  • Few at 5,500' AGL
  • Scattered at 7,500' AGL
  • Broken at 9,500' AGL
Temperature
26°C / 79°F
Dewpoint
23°C / 73°F
Humidity
84%
Altimeter
30.06" Hg
Pressure
1017.92 hPa
Current Rain
0.07"
Previous

1 hour ago

KFLO 192356Z 01009G35KT 3SM -TSRA FEW031 BKN045 OVC110 28/17 A3005 RMK AO2 LTG DSNT N AND SE P0000 T02780172
Observed
Aug-19 @ 23:56 UTC
Wind
  • 010° at 9 KTS
  • Gusting to 35 KTS
Visibility
3 SM
Flight Rules
MVFR
Conditions
Light Thunderstorm, Light Rain
Cloud Levels
  • Few at 3,100' AGL
  • Broken at 4,500' AGL
  • Overcast at 11,000' AGL
Temperature
28°C / 82°F
Dewpoint
17°C / 63°F
Heat Index
28°C / 83°F
Humidity
51%
Altimeter
30.05" Hg
Pressure
1017.62 hPa
Current Rain
0.01"
Previous

2 hours ago

KFLO 192253Z 19007KT 10SM SCT050 32/22 A3002 RMK AO2 LTG DSNT SE SLP162 T03220217
Observed
Aug-19 @ 22:53 UTC
Wind
  • 190° at 7 KTS
Visibility
10 SM
Flight Rules
VFR
Cloud Levels
  • Scattered at 5,000' AGL
Temperature
32°C / 90°F
Dewpoint
22°C / 72°F
Heat Index
36°C / 97°F
Humidity
55%
Altimeter
30.02" Hg
Pressure
1016.62 hPa